Time;durP1;ratioP1;P1;durP2;ratioP2;P2;SDS_P1;SDS_P2;PMS_P1;PMS_P2;Temp;Humidity;BMP_temperature;BMP_pressure;BME280_temperature;BME280_humidity;BME280_pressure;Samples;Min_cycle;Max_cycle;Signal;HPM_P1;HPM_P2
2023/05/09 00:01:45;;;;;;;15.52;10.48;;;;;;;16.07;77.71;100898.97;4147570;28;20096;-65
2023/05/09 00:03:50;;;;;;;15.60;14.02;;;;;;;16.08;77.52;100896.34;4147312;28;20471;-64
2023/05/09 00:05:55;;;;;;;15.07;12.95;;;;;;;16.09;77.32;100894.59;4147602;28;20046;-64
2023/05/09 00:07:57;;;;;;;;;;;;;;;15.96;77.98;100902.50;4147928;28;20389;-64
2023/05/09 00:10:00;;;;;;;13.77;11.77;;;;;;;15.98;77.94;100895.47;4147536;28;19922;-64
2023/05/09 00:12:03;;;;;;;14.43;12.23;;;;;;;16.00;77.84;100891.13;4147440;28;20065;-64
2023/05/09 00:14:07;;;;;;;13.85;11.98;;;;;;;15.98;77.87;100887.63;4130063;28;20093;-65
2023/05/09 00:16:10;;;;;;;13.85;12.32;;;;;;;15.92;77.62;100887.63;4147509;28;20080;-64
2023/05/09 00:18:14;;;;;;;12.20;11.00;;;;;;;15.94;77.70;100888.50;4147471;28;20042;-64
2023/05/09 00:20:17;;;;;;;16.27;14.57;;;;;;;15.94;77.81;100892.88;4147414;28;20034;-64
2023/05/09 00:22:21;;;;;;;13.23;11.88;;;;;;;15.95;77.80;100885.00;4147033;28;20038;-64
2023/05/09 00:24:24;;;;;;;14.98;13.35;;;;;;;15.92;77.81;100874.53;4130106;28;20047;-64
2023/05/09 00:26:27;;;;;;;16.25;14.15;;;;;;;15.86;78.38;100880.63;4147350;28;20038;-65
2023/05/09 00:28:30;;;;;;;14.73;11.20;;;;;;;15.82;78.32;100884.13;4147459;28;20042;-64
2023/05/09 00:30:32;;;;;;;19.80;14.77;;;;;;;15.81;78.16;100877.16;4130040;28;20038;-65
2023/05/09 00:32:35;;;;;;;17.48;15.63;;;;;;;15.79;78.08;100873.66;4129704;28;20539;-64
2023/05/09 00:34:38;;;;;;;14.90;13.38;;;;;;;15.80;77.74;100869.28;4129896;28;20142;-65
2023/05/09 00:36:41;;;;;;;17.33;13.23;;;;;;;15.78;77.79;100876.25;4147405;28;20412;-64
2023/05/09 00:38:46;;;;;;;14.07;12.20;;;;;;;15.76;78.37;100878.00;4130002;28;20531;-65
2023/05/09 00:40:49;;;;;;;13.63;12.23;;;;;;;15.75;78.03;100884.97;4129769;28;20042;-64
2023/05/09 00:42:52;;;;;;;16.77;14.35;;;;;;;15.72;78.44;100871.88;4129638;28;20042;-65
2023/05/09 00:44:55;;;;;;;17.40;15.27;;;;;;;15.68;78.48;100876.25;4129858;28;20042;-65
2023/05/09 00:46:58;;;;;;;15.77;14.18;;;;;;;15.66;78.27;100866.63;4129965;28;20038;-64
2023/05/09 00:49:00;;;;;;;17.35;15.30;;;;;;;15.67;78.16;100864.00;4129865;28;20046;-64
2023/05/09 00:51:04;;;;;;;20.58;17.15;;;;;;;15.66;78.58;100859.63;4145985;28;20049;-64
2023/05/09 00:53:07;;;;;;;18.00;16.10;;;;;;;15.66;78.33;100858.78;4146942;28;20412;-65
2023/05/09 00:55:11;;;;;;;16.15;13.70;;;;;;;15.65;78.29;100857.03;4129818;28;20125;-64
2023/05/09 00:57:15;;;;;;;19.60;15.15;;;;;;;15.63;78.53;100857.03;4146049;28;20053;-65
2023/05/09 00:59:18;;;;;;;16.85;15.13;;;;;;;15.62;78.73;100849.16;4129621;28;20453;-64
2023/05/09 01:01:21;;;;;;;17.48;15.18;;;;;;;15.62;78.39;100852.66;4129720;28;20058;-66
2023/05/09 01:03:24;;;;;;;16.58;13.52;;;;;;;15.62;78.54;100859.66;4113430;28;20055;-65
2023/05/09 01:05:34;;;;;;;19.17;15.70;;;;;;;15.61;78.11;100857.88;4129734;28;20567;-64
2023/05/09 01:07:44;;;;;;;16.20;14.48;;;;;;;15.59;78.35;100854.41;4129853;28;20178;-64
2023/05/09 01:09:55;;;;;;;17.38;15.57;;;;;;;15.56;77.77;100854.41;4129667;28;20137;-64
2023/05/09 01:12:09;;;;;;;17.92;15.18;;;;;;;15.52;78.04;100858.75;4129599;28;20038;-64
2023/05/09 01:14:21;;;;;;;17.58;15.40;;;;;;;15.46;78.63;100854.41;4132685;28;20042;-65
2023/05/09 01:16:32;;;;;;;17.35;14.85;;;;;;;15.40;78.52;100851.78;4132634;28;20062;-65
2023/05/09 01:18:45;;;;;;;19.92;16.80;;;;;;;15.39;78.62;100854.41;4116505;28;20106;-64
2023/05/09 01:20:57;;;;;;;18.40;16.50;;;;;;;15.36;78.36;100840.44;4132592;28;20129;-65
2023/05/09 01:23:18;;;;;;;17.17;15.40;;;;;;;15.36;78.64;100836.91;4149586;28;20498;-64
2023/05/09 01:25:44;;;;;;;18.92;15.38;;;;;;;15.33;78.56;100842.16;4132619;28;20046;-64
2023/05/09 01:27:57;;;;;;;19.00;17.10;;;;;;;15.28;78.09;100829.06;4150123;28;20069;-64
2023/05/09 01:30:03;;;;;;;20.48;18.17;;;;;;;15.25;78.20;100823.81;4149911;28;20053;-64
2023/05/09 01:32:09;;;;;;;18.58;16.67;;;;;;;15.23;78.26;100827.31;4132338;28;20043;-64
2023/05/09 01:34:17;;;;;;;17.40;15.55;;;;;;;15.17;78.52;100820.31;4149877;28;20056;-65
2023/05/09 01:36:21;;;;;;;18.98;16.85;;;;;;;15.17;77.91;100820.31;4132494;28;20516;-65
2023/05/09 01:38:25;;;;;;;17.70;15.90;;;;;;;15.13;78.07;100821.22;4149840;28;20042;-64
2023/05/09 01:40:32;;;;;;;17.35;15.55;;;;;;;15.10;78.34;100816.84;4132248;28;20138;-64
2023/05/09 01:42:40;;;;;;;17.83;15.07;;;;;;;15.11;78.59;100818.59;4132034;28;20415;-64
2023/05/09 01:44:46;;;;;;;14.00;12.60;;;;;;;15.06;79.18;100828.16;4132324;28;20042;-65
2023/05/09 01:46:53;;;;;;;17.45;13.88;;;;;;;15.03;78.40;100827.31;4132251;28;20097;-64
2023/05/09 01:48:57;;;;;;;16.95;15.15;;;;;;;14.98;79.22;100825.56;4132295;28;20496;-64
2023/05/09 01:51:02;;;;;;;19.33;14.80;;;;;;;14.94;79.23;100831.66;4132219;28;20042;-64
2023/05/09 01:53:06;;;;;;;20.67;17.45;;;;;;;14.97;79.11;100828.16;4149155;28;20063;-64
2023/05/09 01:55:11;;;;;;;20.92;14.98;;;;;;;14.99;79.30;100826.41;4115962;28;20055;-64
2023/05/09 01:57:14;;;;;;;17.45;15.68;;;;;;;15.01;79.23;100820.31;4149465;28;20038;-64
2023/05/09 01:59:19;;;;;;;17.83;15.97;;;;;;;15.01;79.35;100820.31;4149555;28;20076;-65
2023/05/09 02:01:23;;;;;;;20.83;15.75;;;;;;;15.04;79.23;100810.69;4131917;28;20089;-64
2023/05/09 02:03:28;;;;;;;;;;;;;;;14.94;79.65;100812.47;4132117;28;20046;-65
2023/05/09 02:05:32;;;;;;;16.95;14.48;;;;;;;14.96;79.03;100808.94;4131915;28;20400;-64
2023/05/09 02:07:36;;;;;;;16.50;14.77;;;;;;;15.00;79.36;100813.31;4131955;28;20129;-64
2023/05/09 02:09:39;;;;;;;19.25;14.90;;;;;;;14.99;79.06;100811.56;4131845;28;20081;-64
2023/05/09 02:11:42;;;;;;;18.13;16.23;;;;;;;15.00;79.09;100815.06;4131766;28;20097;-64
2023/05/09 02:13:45;;;;;;;17.75;15.93;;;;;;;14.98;79.29;100814.19;4131427;28;20057;-64
2023/05/09 02:15:48;;;;;;;17.10;15.40;;;;;;;14.97;78.72;100805.47;4131806;28;20050;-64
2023/05/09 02:17:51;;;;;;;17.50;15.75;;;;;;;14.97;79.02;100813.31;4131783;28;20089;-65
2023/05/09 02:19:56;;;;;;;18.40;16.60;;;;;;;14.96;79.49;100808.94;4131432;28;20511;-64
2023/05/09 02:21:59;;;;;;;21.23;16.50;;;;;;;14.94;78.97;100818.56;4131638;28;20049;-64
2023/05/09 02:24:02;;;;;;;18.30;16.38;;;;;;;14.94;79.04;100817.69;4147756;28;20514;-64
2023/05/09 02:26:05;;;;;;;17.45;15.50;;;;;;;14.93;79.34;100818.56;4149044;28;20547;-64
2023/05/09 02:28:09;;;;;;;18.75;15.48;;;;;;;14.89;79.48;100815.03;4131671;28;20046;-64
2023/05/09 02:30:19;;;;;;;19.15;16.83;;;;;;;14.88;79.37;100820.28;4149010;28;20492;-64
2023/05/09 02:32:27;;;;;;;19.10;17.10;;;;;;;14.87;79.41;100816.78;4131246;28;20488;-64
2023/05/09 02:34:30;;;;;;;18.00;16.15;;;;;;;14.86;79.54;100822.03;4131389;28;20046;-64
2023/05/09 02:36:34;;;;;;;20.58;16.85;;;;;;;14.87;79.58;100815.94;4131516;28;20402;-64
2023/05/09 02:38:37;;;;;;;18.63;16.67;;;;;;;14.87;79.00;100819.41;4148841;28;20042;-64
2023/05/09 02:40:42;;;;;;;23.83;19.27;;;;;;;14.86;78.76;100809.78;4131397;28;20045;-64
2023/05/09 02:42:45;;;;;;;20.52;18.33;;;;;;;14.83;79.31;100810.69;4131015;28;20046;-66
2023/05/09 02:44:48;;;;;;;21.05;18.95;;;;;;;14.90;78.39;100811.56;4131198;28;20046;-65
2023/05/09 02:46:51;;;;;;;26.13;19.00;;;;;;;14.88;78.48;100805.47;4147465;28;20043;-65
2023/05/09 02:48:53;;;;;;;20.55;18.35;;;;;;;14.83;78.15;100799.31;4131308;28;20093;-65
2023/05/09 02:50:57;;;;;;;24.67;17.67;;;;;;;14.79;78.48;100805.41;4131223;28;20064;-65
2023/05/09 02:53:01;;;;;;;22.58;18.45;;;;;;;14.78;79.17;100801.06;4130939;28;20504;-64
2023/05/09 02:55:06;;;;;;;19.27;17.02;;;;;;;14.78;79.42;100799.31;4147444;28;20494;-65
2023/05/09 02:57:12;;;;;;;20.10;17.23;;;;;;;14.80;79.47;100796.69;4131062;28;20038;-65
2023/05/09 02:59:15;;;;;;;19.00;15.98;;;;;;;14.81;79.63;100801.06;4148498;28;20050;-65
2023/05/09 03:01:18;;;;;;;23.20;20.05;;;;;;;14.83;79.62;100799.31;4114845;28;20039;-65
2023/05/09 03:03:22;;;;;;;21.42;18.38;;;;;;;14.84;79.92;100790.63;4130708;28;20046;-65
2023/05/09 03:05:25;;;;;;;26.33;20.80;;;;;;;14.88;79.84;100800.22;4131057;28;20137;-65
2023/05/09 03:07:28;;;;;;;28.73;20.70;;;;;;;14.90;79.42;100800.22;4131034;28;20047;-65
2023/05/09 03:09:32;;;;;;;23.23;19.75;;;;;;;14.93;79.57;100790.63;4130955;28;20039;-65
2023/05/09 03:11:36;;;;;;;24.58;19.52;;;;;;;14.96;79.87;100784.53;4114781;28;20105;-65
2023/05/09 03:13:39;;;;;;;26.83;21.48;;;;;;;14.96;79.87;100785.38;4130661;28;20047;-65
2023/05/09 03:15:42;;;;;;;28.02;21.65;;;;;;;15.03;80.01;100782.78;4130886;28;20046;-65
2023/05/09 03:17:47;;;;;;;21.50;18.55;;;;;;;15.01;80.21;100781.03;4130891;28;20058;-65
2023/05/09 03:19:50;;;;;;;27.33;19.45;;;;;;;15.03;80.21;100782.78;4130852;28;20058;-65
2023/05/09 03:21:52;;;;;;;24.63;19.25;;;;;;;15.03;80.36;100785.41;4130612;28;20034;-64
2023/05/09 03:23:55;;;;;;;21.25;17.17;;;;;;;15.05;80.56;100776.66;4146651;28;20049;-65
2023/05/09 03:26:00;;;;;;;22.80;20.02;;;;;;;15.07;80.05;100779.28;4130766;28;20515;-65
2023/05/09 03:28:03;;;;;;;25.52;21.73;;;;;;;15.09;80.23;100774.94;4130771;28;20065;-65
2023/05/09 03:30:07;;;;;;;22.50;18.00;;;;;;;15.11;80.40;100768.84;4148080;28;20413;-65
2023/05/09 03:32:11;;;;;;;22.58;19.40;;;;;;;15.13;80.48;100766.22;4130399;28;20133;-65
2023/05/09 03:34:16;;;;;;;22.92;18.00;;;;;;;15.14;81.11;100757.47;4148052;28;20042;-65
2023/05/09 03:36:20;;;;;;;25.85;20.13;;;;;;;15.16;80.34;100769.69;4130401;28;20098;-65
2023/05/09 03:38:23;;;;;;;23.83;21.35;;;;;;;15.18;80.48;100764.47;4130630;28;20129;-65
2023/05/09 03:40:26;;;;;;;24.88;20.65;;;;;;;15.18;80.53;100767.94;4130457;28;20046;-65
2023/05/09 03:42:41;;;;;;;27.25;20.48;;;;;;;15.16;80.91;100760.97;4130193;28;20076;-65
2023/05/09 03:44:43;;;;;;;18.80;16.77;;;;;;;15.13;80.77;100767.09;4147970;28;20447;-65
2023/05/09 03:46:46;;;;;;;19.33;17.33;;;;;;;15.15;81.04;100764.47;4114268;28;20126;-65
2023/05/09 03:48:49;;;;;;;20.50;18.35;;;;;;;15.20;81.10;100767.97;4130463;28;20436;-65
2023/05/09 03:50:52;;;;;;;23.92;19.88;;;;;;;15.20;80.44;100767.97;4130485;28;20077;-65
2023/05/09 03:52:57;;;;;;;23.35;20.90;;;;;;;15.20;81.05;100765.34;4130159;28;20125;-65
2023/05/09 03:55:00;;;;;;;21.15;18.77;;;;;;;15.21;80.60;100759.22;4130591;28;20038;-65
2023/05/09 03:57:05;;;;;;;23.58;18.90;;;;;;;15.26;81.17;100752.25;4146541;28;20046;-65
2023/05/09 03:59:10;;;;;;;18.05;15.98;;;;;;;15.28;80.82;100755.72;4130345;28;20065;-65
2023/05/09 04:01:14;;;;;;;19.48;17.42;;;;;;;15.29;80.50;100749.63;4146486;28;20124;-65
2023/05/09 04:03:17;;;;;;;22.73;20.35;;;;;;;15.30;81.29;100754.00;4146139;28;20077;-65
2023/05/09 04:05:22;;;;;;;23.27;18.30;;;;;;;15.32;81.04;100765.34;4130477;28;20509;-65
2023/05/09 04:07:27;;;;;;;21.02;16.92;;;;;;;15.31;80.69;100762.72;4130392;28;20117;-65
2023/05/09 04:09:30;;;;;;;22.65;18.45;;;;;;;15.31;81.15;100763.56;4130367;28;20508;-65
2023/05/09 04:11:33;;;;;;;21.80;19.50;;;;;;;15.35;81.45;100765.31;4147782;28;20444;-65
2023/05/09 04:13:36;;;;;;;19.42;17.33;;;;;;;15.36;80.91;100760.94;4130029;28;20045;-65
2023/05/09 04:15:48;;;;;;;22.67;18.85;;;;;;;15.38;81.41;100755.75;4130351;28;20050;-65
2023/05/09 04:17:51;;;;;;;21.60;18.92;;;;;;;15.35;80.96;100749.59;4146560;28;20129;-65
2023/05/09 04:19:54;;;;;;;19.80;17.25;;;;;;;15.38;81.17;100761.84;4130200;28;20137;-65
2023/05/09 04:21:57;;;;;;;20.95;18.75;;;;;;;15.42;81.28;100762.69;4147518;28;20141;-65
2023/05/09 04:24:00;;;;;;;19.88;17.55;;;;;;;15.44;81.13;100764.44;4129877;28;20504;-65
2023/05/09 04:26:11;;;;;;;22.08;18.73;;;;;;;15.45;81.07;100755.72;4130264;28;20047;-65
2023/05/09 04:28:14;;;;;;;21.10;18.00;;;;;;;15.47;81.46;100755.72;4147699;28;20042;-64
2023/05/09 04:30:17;;;;;;;20.63;18.30;;;;;;;15.48;81.27;100762.72;4114007;28;20394;-65
2023/05/09 04:32:23;;;;;;;31.60;19.77;;;;;;;15.53;81.30;100766.19;4129892;28;20058;-65
2023/05/09 04:34:26;;;;;;;20.95;18.75;;;;;;;15.56;81.37;100766.19;4147499;28;20128;-65
2023/05/09 04:36:32;;;;;;;20.25;17.77;;;;;;;15.58;81.43;100759.19;4130180;28;20390;-65
2023/05/09 04:38:35;;;;;;;20.15;17.20;;;;;;;15.62;81.37;100760.06;4130126;28;20082;-65
2023/05/09 04:40:41;;;;;;;20.15;16.38;;;;;;;15.64;81.39;100764.44;4130218;28;20145;-65
2023/05/09 04:42:44;;;;;;;22.52;17.55;;;;;;;15.68;81.30;100760.03;4129754;28;20030;-65
2023/05/09 04:44:48;;;;;;;25.55;18.73;;;;;;;15.70;81.38;100759.16;4130108;28;20515;-65
2023/05/09 04:46:51;;;;;;;21.17;18.55;;;;;;;15.71;80.80;100755.69;4130147;28;20038;-65
2023/05/09 04:48:55;;;;;;;19.13;15.25;;;;;;;15.74;81.21;100743.44;4133123;28;20416;-65
2023/05/09 04:50:58;;;;;;;19.00;17.10;;;;;;;15.73;81.24;100736.47;4133303;28;20460;-65
2023/05/09 04:53:01;;;;;;;20.92;18.58;;;;;;;15.70;81.23;100747.81;4132858;28;20088;-65
2023/05/09 04:55:05;;;;;;;21.60;18.48;;;;;;;15.74;81.11;100743.44;4133148;28;20101;-65
2023/05/09 04:57:13;;;;;;;21.98;19.30;;;;;;;15.76;81.47;100746.94;4117061;28;20173;-65
2023/05/09 04:59:26;;;;;;;18.98;15.35;;;;;;;15.73;81.38;100742.56;4133200;28;20042;-65
2023/05/09 05:01:29;;;;;;;21.10;18.90;;;;;;;15.73;81.48;100739.94;4133081;28;20046;-65
2023/05/09 05:03:33;;;;;;;22.75;16.65;;;;;;;15.74;81.42;100733.84;4132557;28;20038;-65
2023/05/09 05:05:39;;;;;;;16.67;14.88;;;;;;;15.77;81.45;100738.19;4132964;28;20101;-65
2023/05/09 05:07:42;;;;;;;18.33;16.33;;;;;;;15.81;81.56;100737.31;4132991;28;20116;-65
2023/05/09 05:09:47;;;;;;;20.70;17.75;;;;;;;15.81;81.95;100730.34;4132896;28;20457;-65
2023/05/09 05:11:50;;;;;;;20.23;18.10;;;;;;;15.85;81.55;100728.59;4132759;28;20046;-65
2023/05/09 05:14:04;;;;;;;23.05;20.58;;;;;;;15.89;81.39;100727.69;4132679;28;20147;-65
2023/05/09 05:16:08;;;;;;;21.63;18.08;;;;;;;15.96;80.98;100723.28;4132686;28;20044;-65
2023/05/09 05:18:11;;;;;;;18.75;15.15;;;;;;;15.94;80.90;100723.28;4132730;28;20135;-65
2023/05/09 05:20:13;;;;;;;21.05;18.10;;;;;;;15.94;81.27;100725.91;4132646;28;20045;-65
2023/05/09 05:22:21;;;;;;;20.55;18.42;;;;;;;15.98;81.18;100722.41;4132095;28;20057;-65
2023/05/09 05:24:24;;;;;;;21.35;17.60;;;;;;;16.01;80.88;100722.41;4150095;28;20072;-65
2023/05/09 05:26:28;;;;;;;21.25;19.10;;;;;;;16.09;80.74;100724.13;4132679;28;20034;-65
2023/05/09 05:28:31;;;;;;;23.50;21.05;;;;;;;16.13;80.54;100712.75;4132606;28;20130;-65
2023/05/09 05:30:34;;;;;;;21.52;17.45;;;;;;;16.15;80.30;100717.09;4132531;28;20066;-65
2023/05/09 05:32:37;;;;;;;19.33;17.20;;;;;;;16.14;80.10;100711.88;4132227;28;20444;-65
2023/05/09 05:34:40;;;;;;;22.65;20.27;;;;;;;16.20;79.94;100714.47;4132421;28;20130;-65
2023/05/09 05:36:43;;;;;;;24.88;20.67;;;;;;;16.19;80.10;100715.31;4132441;28;20125;-65
2023/05/09 05:38:48;;;;;;;19.63;17.25;;;;;;;16.18;79.92;100713.59;4149694;28;20129;-65
2023/05/09 05:40:50;;;;;;;22.63;20.23;;;;;;;16.21;80.03;100708.34;4132383;28;20081;-65
2023/05/09 05:42:54;;;;;;;18.40;15.55;;;;;;;16.26;79.78;100721.44;4131958;28;20066;-65
2023/05/09 05:45:03;;;;;;;19.43;17.43;;;;;;;16.24;80.16;100724.06;4132372;28;20038;-66
2023/05/09 05:47:07;;;;;;;20.75;17.33;;;;;;;16.28;79.98;100725.78;4132329;28;20085;-63
2023/05/09 05:49:10;;;;;;;28.95;20.42;;;;;;;16.31;79.81;100720.53;4149633;28;20048;-66
2023/05/09 05:51:13;;;;;;;29.77;22.33;;;;;;;16.33;79.91;100713.50;4132227;28;20047;-66
2023/05/09 05:53:17;;;;;;;30.53;22.43;;;;;;;16.32;79.19;100722.25;4131697;28;20133;-64
2023/05/09 05:55:21;;;;;;;33.30;23.20;;;;;;;16.32;79.23;100718.75;4116180;28;20385;-64
2023/05/09 05:57:24;;;;;;;26.63;21.00;;;;;;;16.29;79.36;100721.41;4132099;28;20500;-66
2023/05/09 05:59:27;;;;;;;26.23;19.85;;;;;;;16.29;79.02;100714.41;4131999;28;20074;-66
2023/05/09 06:01:30;;;;;;;28.05;20.10;;;;;;;16.35;79.20;100722.25;4131937;28;20118;-66
2023/05/09 06:03:33;;;;;;;23.50;18.92;;;;;;;16.45;79.32;100722.19;4115530;28;20122;-63
2023/05/09 06:05:42;;;;;;;26.30;21.10;;;;;;;16.50;78.68;100715.16;4149404;28;20450;-64
2023/05/09 06:07:46;;;;;;;33.30;25.85;;;;;;;16.49;78.97;100714.28;4132120;28;20524;-64
2023/05/09 06:09:48;;;;;;;36.92;28.25;;;;;;;16.50;78.46;100723.03;4149295;28;20046;-64
2023/05/09 06:11:53;;;;;;;26.92;20.63;;;;;;;16.50;78.66;100715.16;4131754;28;20046;-66
2023/05/09 06:13:56;;;;;;;30.50;23.17;;;;;;;16.52;78.72;100709.03;4131650;28;20452;-64
2023/05/09 06:15:59;;;;;;;35.92;27.55;;;;;;;16.57;78.89;100706.34;4131872;28;20038;-64
2023/05/09 06:18:22;;;;;;;40.28;27.67;;;;;;;16.52;78.62;100708.16;4147961;28;20060;-64
2023/05/09 06:20:26;;;;;;;34.75;25.80;;;;;;;16.55;79.00;100713.38;4149128;28;20128;-66
2023/05/09 06:22:29;;;;;;;44.05;28.33;;;;;;;16.66;78.25;100708.94;4131187;28;20066;-63
2023/05/09 06:24:31;;;;;;;36.15;25.92;;;;;;;16.60;78.58;100715.97;4131618;28;20064;-64
2023/05/09 06:26:39;;;;;;;29.52;21.23;;;;;;;16.60;78.92;100705.47;4149064;28;20045;-64
2023/05/09 06:28:43;;;;;;;38.83;26.60;;;;;;;16.57;78.43;100706.34;4131622;28;20064;-64
2023/05/09 06:30:46;;;;;;;34.20;23.63;;;;;;;16.66;78.62;100698.44;4131618;28;20042;-64
2023/05/09 06:32:50;;;;;;;37.85;24.25;;;;;;;16.66;78.52;100693.19;4148630;28;20081;-64
2023/05/09 06:34:53;;;;;;;32.53;22.30;;;;;;;16.63;78.34;100701.09;4148768;28;20065;-64
2023/05/09 06:36:56;;;;;;;31.48;23.15;;;;;;;16.63;78.33;100701.09;4148663;28;20062;-64
2023/05/09 06:38:59;;;;;;;36.67;26.52;;;;;;;16.58;78.39;100697.63;4148797;28;20042;-64
2023/05/09 06:41:02;;;;;;;32.42;21.50;;;;;;;16.67;78.29;100696.69;4131311;28;20480;-64
2023/05/09 06:43:05;;;;;;;31.85;24.67;;;;;;;16.74;78.50;100694.00;4148315;28;20088;-64
2023/05/09 06:45:10;;;;;;;39.75;27.50;;;;;;;16.82;77.50;100696.56;4147372;28;20139;-64
2023/05/09 06:47:13;;;;;;;34.25;26.10;;;;;;;16.88;77.18;100690.41;4131253;28;20492;-64
2023/05/09 06:49:16;;;;;;;39.63;30.35;;;;;;;16.89;76.77;100684.28;4148656;28;20042;-64
2023/05/09 06:51:19;;;;;;;35.03;24.95;;;;;;;16.81;76.94;100683.47;4148562;28;20046;-65
2023/05/09 06:53:22;;;;;;;34.55;23.95;;;;;;;16.85;77.25;100685.16;4148261;28;20044;-65
2023/05/09 06:55:25;;;;;;;28.95;21.65;;;;;;;16.75;77.68;100669.47;4148624;28;20056;-65
2023/05/09 06:57:28;;;;;;;26.75;20.40;;;;;;;16.74;78.24;100674.75;4148594;28;20067;-65
2023/05/09 06:59:31;;;;;;;28.95;21.13;;;;;;;16.75;78.56;100668.63;4148548;28;20053;-65
2023/05/09 07:01:36;;;;;;;33.93;26.13;;;;;;;16.80;77.98;100663.34;4148524;28;20175;-65
2023/05/09 07:03:39;;;;;;;33.55;25.98;;;;;;;16.81;78.05;100670.34;4130755;28;20377;-65
2023/05/09 07:05:42;;;;;;;33.53;23.48;;;;;;;16.89;77.50;100671.16;4148477;28;20038;-65
2023/05/09 07:07:44;;;;;;;31.38;21.63;;;;;;;16.78;77.67;100671.22;4131025;28;20524;-65
2023/05/09 07:09:47;;;;;;;28.45;22.02;;;;;;;16.79;77.72;100674.72;4130767;28;20070;-65
2023/05/09 07:11:55;;;;;;;34.53;25.17;;;;;;;16.82;78.19;100670.31;4148283;28;20042;-64
2023/05/09 07:13:57;;;;;;;34.45;26.23;;;;;;;16.97;77.78;100661.47;4148406;28;20038;-65
2023/05/09 07:16:00;;;;;;;33.53;22.77;;;;;;;16.98;77.64;100665.84;4148424;28;20048;-65
2023/05/09 07:18:05;;;;;;;29.48;22.80;;;;;;;17.01;77.71;100662.28;4148616;28;20053;-65
2023/05/09 07:20:08;;;;;;;40.92;30.13;;;;;;;17.13;76.89;100658.69;4130892;28;20043;-65
2023/05/09 07:22:12;;;;;;;31.13;22.08;;;;;;;17.17;76.76;100649.88;4147837;28;20069;-65
2023/05/09 07:24:15;;;;;;;33.83;24.38;;;;;;;17.25;76.83;100642.81;4148183;28;20046;-65
2023/05/09 07:26:18;;;;;;;31.73;20.00;;;;;;;17.41;77.06;100644.38;4148192;28;20034;-65
2023/05/09 07:28:20;;;;;;;31.08;22.52;;;;;;;17.45;76.39;100650.47;4146941;28;20049;-65
2023/05/09 07:30:23;;;;;;;32.60;26.27;;;;;;;17.62;75.90;100642.38;4148179;28;20384;-65
2023/05/09 07:32:27;;;;;;;28.92;22.05;;;;;;;17.69;75.58;100633.53;4147793;28;20061;-65
2023/05/09 07:34:32;;;;;;;28.67;21.40;;;;;;;17.77;75.52;100636.06;4130677;28;20088;-65
2023/05/09 07:36:36;;;;;;;30.48;23.92;;;;;;;17.83;74.78;100635.13;4148179;28;20528;-65
2023/05/09 07:38:40;;;;;;;27.23;20.73;;;;;;;17.80;74.31;100634.28;4113736;28;20055;-65
2023/05/09 07:40:43;;;;;;;25.70;18.48;;;;;;;17.68;75.67;100628.28;4113920;28;20133;-66
2023/05/09 07:42:48;;;;;;;27.13;21.75;;;;;;;17.68;75.66;100620.41;4113570;28;20049;-65
2023/05/09 07:44:51;;;;;;;28.92;23.42;;;;;;;17.66;75.70;100620.44;4097745;28;20055;-65
2023/05/09 07:46:54;;;;;;;30.83;26.35;;;;;;;17.71;75.36;100613.38;4113827;28;20051;-66
2023/05/09 07:48:57;;;;;;;31.42;23.35;;;;;;;17.61;75.81;100609.13;4097827;29;20075;-66
2023/05/09 07:51:01;;;;;;;32.42;23.73;;;;;;;17.54;75.76;100613.56;4113778;28;20051;-66
2023/05/09 07:53:04;;;;;;;26.08;20.83;;;;;;;17.52;75.84;100615.34;4113444;28;20051;-66
2023/05/09 07:55:08;;;;;;;32.30;24.23;;;;;;;17.61;75.96;100609.13;4097646;28;20087;-65
2023/05/09 07:57:11;;;;;;;28.70;21.57;;;;;;;17.59;75.96;100616.13;4115157;28;20050;-66
2023/05/09 07:59:13;;;;;;;28.98;22.80;;;;;;;17.66;76.38;100609.91;4148065;28;20128;-66
2023/05/09 08:01:16;;;;;;;37.95;27.45;;;;;;;17.75;76.01;100604.53;4147907;28;20065;-65
2023/05/09 08:03:19;;;;;;;33.67;26.65;;;;;;;17.88;75.73;100604.38;4147490;28;20050;-65
2023/05/09 08:05:22;;;;;;;50.53;29.63;;;;;;;17.93;74.69;100599.94;4147587;28;20065;-65
2023/05/09 08:07:26;;;;;;;33.80;25.92;;;;;;;18.12;74.02;100584.75;4147638;28;20057;-65
2023/05/09 08:09:30;;;;;;;36.60;24.98;;;;;;;18.25;73.45;100582.81;4147685;28;20044;-66
2023/05/09 08:11:33;;;;;;;32.10;26.17;;;;;;;18.23;73.61;100576.72;4147657;28;20088;-65
2023/05/09 08:13:36;;;;;;;27.83;20.95;;;;;;;18.26;73.84;100574.03;4129754;28;20575;-65
2023/05/09 08:15:39;;;;;;;28.80;22.67;;;;;;;18.22;74.01;100570.56;4147591;28;20113;-65
2023/05/09 08:17:42;;;;;;;27.00;21.23;;;;;;;18.29;72.97;100573.97;4147832;28;20492;-65
2023/05/09 08:19:45;;;;;;;27.60;20.75;;;;;;;18.21;73.53;100571.47;4147518;28;20092;-65
2023/05/09 08:21:48;;;;;;;47.22;25.55;;;;;;;18.35;73.01;100560.72;4147531;28;20080;-65
2023/05/09 08:23:52;;;;;;;28.83;21.70;;;;;;;18.19;73.42;100567.13;4150277;28;20480;-66
2023/05/09 08:25:55;;;;;;;30.90;23.55;;;;;;;18.07;73.66;100558.53;4133539;28;20092;-65
2023/05/09 08:27:58;;;;;;;33.35;25.38;;;;;;;18.18;73.55;100570.66;4150835;28;20070;-66
2023/05/09 08:30:01;;;;;;;32.88;21.45;;;;;;;18.11;73.65;100570.75;4150823;28;20042;-65
2023/05/09 08:32:04;;;;;;;28.88;21.08;;;;;;;18.08;74.59;100565.53;4150702;28;20551;-65
2023/05/09 08:34:07;;;;;;;38.05;25.45;;;;;;;18.23;73.41;100560.94;4150801;28;20038;-66
2023/05/09 08:36:09;;;;;;;27.35;22.60;;;;;;;18.13;73.48;100562.81;4150717;28;20073;-66
2023/05/09 08:38:12;;;;;;;33.55;25.95;;;;;;;18.13;73.87;100558.41;4133214;28;20054;-66
2023/05/09 08:40:17;;;;;;;37.38;25.80;;;;;;;18.16;73.24;100560.16;4151110;28;20117;-66
2023/05/09 08:42:21;;;;;;;;;;;;;;;18.17;74.23;100558.41;4150783;28;20038;-65
2023/05/09 08:44:29;;;;;;;27.92;20.35;;;;;;;18.15;73.77;100553.16;4150579;28;19928;-65
2023/05/09 08:46:38;;;;;;;34.00;23.05;;;;;;;18.17;74.05;100555.78;4150597;28;20038;-65
2023/05/09 08:48:43;;;;;;;33.85;24.60;;;;;;;18.25;73.55;100546.88;4150763;28;20046;-65
2023/05/09 08:50:46;;;;;;;39.42;25.50;;;;;;;18.28;73.72;100551.19;4150556;28;20045;-66
2023/05/09 08:52:52;;;;;;;36.63;23.33;;;;;;;18.28;74.07;100548.56;4132676;28;20034;-66
2023/05/09 08:54:55;;;;;;;36.50;25.10;;;;;;;18.39;73.73;100548.41;4150461;28;20077;-65
2023/05/09 08:57:01;;;;;;;36.85;25.15;;;;;;;18.47;73.49;100544.75;4133081;28;20038;-65
2023/05/09 08:59:04;;;;;;;32.47;25.13;;;;;;;18.43;73.94;100536.94;4150410;28;20092;-65
2023/05/09 09:01:07;;;;;;;32.55;24.77;;;;;;;18.51;72.40;100536.78;4150413;28;20092;-65
2023/05/09 09:03:10;;;;;;;34.72;28.17;;;;;;;18.57;72.41;100531.41;4149946;28;20511;-65
2023/05/09 09:05:13;;;;;;;27.45;22.15;;;;;;;18.53;73.04;100533.22;4150273;28;20148;-65
2023/05/09 09:07:38;;;;;;;25.10;20.58;;;;;;;18.55;73.26;100541.97;4132875;28;20070;-65
2023/05/09 09:09:45;;;;;;;32.50;23.35;;;;;;;18.53;73.01;100537.59;4150169;28;20042;-65
2023/05/09 09:11:48;;;;;;;30.20;23.98;;;;;;;18.55;72.54;100541.09;4150093;28;20107;-66
2023/05/09 09:13:54;;;;;;;26.75;21.58;;;;;;;18.51;72.81;100531.53;4149792;28;20046;-65
2023/05/09 09:15:59;;;;;;;28.23;22.60;;;;;;;18.46;73.07;100527.19;4150363;28;20038;-65
2023/05/09 09:18:07;;;;;;;33.30;22.25;;;;;;;18.46;73.08;100534.22;4150040;28;20133;-66
2023/05/09 09:20:14;;;;;;;30.65;22.15;;;;;;;18.49;73.18;100527.13;4150109;28;20068;-65
2023/05/09 09:22:19;;;;;;;29.38;23.60;;;;;;;18.57;72.76;100520.88;4149599;28;20045;-65
2023/05/09 09:24:23;;;;;;;31.85;20.10;;;;;;;18.60;72.95;100512.91;4132608;28;20052;-65
2023/05/09 09:26:28;;;;;;;26.95;20.77;;;;;;;18.59;73.17;100511.19;4149993;28;20049;-65